sensor_id;sensor_type;location;lat;lon;timestamp;temperature;humidity
25410;DHT22;13339;50.840;4.346;2023-11-22T00:00:23;8.30;99.90
25410;DHT22;13339;50.840;4.346;2023-11-22T00:02:48;8.30;99.90
25410;DHT22;13339;50.840;4.346;2023-11-22T00:05:14;8.40;99.90
25410;DHT22;13339;50.840;4.346;2023-11-22T00:07:39;8.20;99.90
25410;DHT22;13339;50.840;4.346;2023-11-22T00:10:06;8.30;99.90
25410;DHT22;13339;50.840;4.346;2023-11-22T00:12:31;8.20;99.90
25410;DHT22;13339;50.840;4.346;2023-11-22T00:15:03;8.10;99.90
25410;DHT22;13339;50.840;4.346;2023-11-22T00:17:30;8.20;99.90
25410;DHT22;13339;50.840;4.346;2023-11-22T00:19:56;8.30;99.90
25410;DHT22;13339;50.840;4.346;2023-11-22T00:22:21;8.10;99.90
25410;DHT22;13339;50.840;4.346;2023-11-22T00:24:47;8.10;99.90
25410;DHT22;13339;50.840;4.346;2023-11-22T00:27:15;8.10;99.90
25410;DHT22;13339;50.840;4.346;2023-11-22T00:29:41;8.00;99.90
25410;DHT22;13339;50.840;4.346;2023-11-22T00:32:07;7.90;99.90
25410;DHT22;13339;50.840;4.346;2023-11-22T00:34:35;7.70;99.90
25410;DHT22;13339;50.840;4.346;2023-11-22T00:37:01;7.60;99.90
25410;DHT22;13339;50.840;4.346;2023-11-22T00:39:27;7.40;99.90
25410;DHT22;13339;50.840;4.346;2023-11-22T00:41:53;7.30;99.90
25410;DHT22;13339;50.840;4.346;2023-11-22T00:44:18;7.30;99.90
25410;DHT22;13339;50.840;4.346;2023-11-22T00:46:44;7.30;99.90
25410;DHT22;13339;50.840;4.346;2023-11-22T00:49:11;7.30;99.90
25410;DHT22;13339;50.840;4.346;2023-11-22T00:51:36;7.30;99.90
25410;DHT22;13339;50.840;4.346;2023-11-22T00:54:03;7.50;99.90
25410;DHT22;13339;50.840;4.346;2023-11-22T00:56:29;7.70;99.90
25410;DHT22;13339;50.840;4.346;2023-11-22T00:58:55;7.70;99.90
25410;DHT22;13339;50.840;4.346;2023-11-22T01:01:20;7.90;99.90
25410;DHT22;13339;50.840;4.346;2023-11-22T01:03:46;8.00;99.90
25410;DHT22;13339;50.840;4.346;2023-11-22T01:06:12;7.90;99.90
25410;DHT22;13339;50.840;4.346;2023-11-22T01:08:38;7.80;99.90
25410;DHT22;13339;50.840;4.346;2023-11-22T01:11:04;7.80;99.90
25410;DHT22;13339;50.840;4.346;2023-11-22T01:13:31;7.80;99.90
25410;DHT22;13339;50.840;4.346;2023-11-22T01:15:58;7.80;99.90
25410;DHT22;13339;50.840;4.346;2023-11-22T01:18:24;7.80;99.90
25410;DHT22;13339;50.840;4.346;2023-11-22T01:20:50;7.80;99.90
25410;DHT22;13339;50.840;4.346;2023-11-22T01:23:15;7.60;99.90
25410;DHT22;13339;50.840;4.346;2023-11-22T01:25:41;7.40;99.90
25410;DHT22;13339;50.840;4.346;2023-11-22T01:28:07;7.30;99.90
25410;DHT22;13339;50.840;4.346;2023-11-22T01:30:32;7.40;99.90
25410;DHT22;13339;50.840;4.346;2023-11-22T01:32:58;7.60;99.90
25410;DHT22;13339;50.840;4.346;2023-11-22T01:35:24;7.70;99.90
25410;DHT22;13339;50.840;4.346;2023-11-22T01:37:50;7.70;99.90
25410;DHT22;13339;50.840;4.346;2023-11-22T01:40:16;7.90;99.90
25410;DHT22;13339;50.840;4.346;2023-11-22T01:42:42;8.00;99.90
25410;DHT22;13339;50.840;4.346;2023-11-22T01:45:08;8.00;99.90
25410;DHT22;13339;50.840;4.346;2023-11-22T01:47:35;7.90;99.90
25410;DHT22;13339;50.840;4.346;2023-11-22T01:50:02;8.00;99.90
25410;DHT22;13339;50.840;4.346;2023-11-22T01:52:30;7.90;99.90
25410;DHT22;13339;50.840;4.346;2023-11-22T01:54:56;8.00;99.90
25410;DHT22;13339;50.840;4.346;2023-11-22T01:57:21;7.90;99.90
25410;DHT22;13339;50.840;4.346;2023-11-22T01:59:47;7.70;99.90
25410;DHT22;13339;50.840;4.346;2023-11-22T02:02:13;7.80;99.90
25410;DHT22;13339;50.840;4.346;2023-11-22T02:04:39;7.50;99.90
25410;DHT22;13339;50.840;4.346;2023-11-22T02:07:05;7.30;99.90
25410;DHT22;13339;50.840;4.346;2023-11-22T02:09:30;7.20;99.90
25410;DHT22;13339;50.840;4.346;2023-11-22T02:11:57;7.10;99.90
25410;DHT22;13339;50.840;4.346;2023-11-22T02:14:23;7.10;99.90
25410;DHT22;13339;50.840;4.346;2023-11-22T02:16:49;7.10;99.90
25410;DHT22;13339;50.840;4.346;2023-11-22T02:19:16;7.30;99.90
25410;DHT22;13339;50.840;4.346;2023-11-22T02:21:43;7.40;99.90
25410;DHT22;13339;50.840;4.346;2023-11-22T02:24:09;7.50;99.90
25410;DHT22;13339;50.840;4.346;2023-11-22T02:26:35;7.30;99.90
25410;DHT22;13339;50.840;4.346;2023-11-22T02:29:02;7.30;99.90
25410;DHT22;13339;50.840;4.346;2023-11-22T02:31:30;7.10;99.90
25410;DHT22;13339;50.840;4.346;2023-11-22T02:33:55;7.20;99.90
25410;DHT22;13339;50.840;4.346;2023-11-22T02:36:22;7.30;99.90
25410;DHT22;13339;50.840;4.346;2023-11-22T02:38:48;7.30;99.90
25410;DHT22;13339;50.840;4.346;2023-11-22T02:41:13;7.40;99.90
25410;DHT22;13339;50.840;4.346;2023-11-22T02:43:39;7.20;99.90
25410;DHT22;13339;50.840;4.346;2023-11-22T02:46:08;7.30;99.90
25410;DHT22;13339;50.840;4.346;2023-11-22T02:48:33;7.50;99.90
25410;DHT22;13339;50.840;4.346;2023-11-22T02:50:59;7.60;99.90
25410;DHT22;13339;50.840;4.346;2023-11-22T02:53:25;7.50;99.90
25410;DHT22;13339;50.840;4.346;2023-11-22T02:55:50;7.40;99.90
25410;DHT22;13339;50.840;4.346;2023-11-22T02:58:16;7.30;99.90
25410;DHT22;13339;50.840;4.346;2023-11-22T03:00:42;7.20;99.90
25410;DHT22;13339;50.840;4.346;2023-11-22T03:03:08;7.00;99.90
25410;DHT22;13339;50.840;4.346;2023-11-22T03:05:35;7.10;99.90
25410;DHT22;13339;50.840;4.346;2023-11-22T03:08:05;7.10;99.90
25410;DHT22;13339;50.840;4.346;2023-11-22T03:10:33;6.90;99.90
25410;DHT22;13339;50.840;4.346;2023-11-22T03:12:58;7.00;99.90
25410;DHT22;13339;50.840;4.346;2023-11-22T03:15:24;7.20;99.90
25410;DHT22;13339;50.840;4.346;2023-11-22T03:17:49;7.30;99.90
25410;DHT22;13339;50.840;4.346;2023-11-22T03:20:15;7.40;99.90
25410;DHT22;13339;50.840;4.346;2023-11-22T03:22:42;7.30;99.90
25410;DHT22;13339;50.840;4.346;2023-11-22T03:25:10;7.00;99.90
25410;DHT22;13339;50.840;4.346;2023-11-22T03:27:37;7.00;99.90
25410;DHT22;13339;50.840;4.346;2023-11-22T03:30:03;7.00;99.90
25410;DHT22;13339;50.840;4.346;2023-11-22T03:32:29;7.00;99.90
25410;DHT22;13339;50.840;4.346;2023-11-22T03:34:55;7.00;99.90
25410;DHT22;13339;50.840;4.346;2023-11-22T03:37:21;7.10;99.90
25410;DHT22;13339;50.840;4.346;2023-11-22T03:39:47;7.20;99.90
25410;DHT22;13339;50.840;4.346;2023-11-22T03:42:16;7.40;99.90
25410;DHT22;13339;50.840;4.346;2023-11-22T03:44:42;7.40;99.90
25410;DHT22;13339;50.840;4.346;2023-11-22T03:47:07;7.60;99.90
25410;DHT22;13339;50.840;4.346;2023-11-22T03:49:33;7.40;99.90
25410;DHT22;13339;50.840;4.346;2023-11-22T03:51:59;7.40;99.90
25410;DHT22;13339;50.840;4.346;2023-11-22T03:54:24;7.30;99.90
25410;DHT22;13339;50.840;4.346;2023-11-22T03:56:50;7.20;99.90
25410;DHT22;13339;50.840;4.346;2023-11-22T03:59:16;7.20;99.90
25410;DHT22;13339;50.840;4.346;2023-11-22T04:01:41;7.20;99.90
25410;DHT22;13339;50.840;4.346;2023-11-22T04:04:07;7.30;99.90
25410;DHT22;13339;50.840;4.346;2023-11-22T04:06:35;7.10;99.90
25410;DHT22;13339;50.840;4.346;2023-11-22T04:09:00;6.90;99.90
25410;DHT22;13339;50.840;4.346;2023-11-22T04:11:27;6.90;99.90
25410;DHT22;13339;50.840;4.346;2023-11-22T04:13:55;7.00;99.90
25410;DHT22;13339;50.840;4.346;2023-11-22T04:16:20;7.20;99.90
25410;DHT22;13339;50.840;4.346;2023-11-22T04:18:46;7.30;99.90
25410;DHT22;13339;50.840;4.346;2023-11-22T04:21:12;7.50;99.90
25410;DHT22;13339;50.840;4.346;2023-11-22T04:23:37;7.70;99.90
25410;DHT22;13339;50.840;4.346;2023-11-22T04:26:03;7.70;99.90
25410;DHT22;13339;50.840;4.346;2023-11-22T04:28:29;8.00;99.90
25410;DHT22;13339;50.840;4.346;2023-11-22T04:30:55;8.10;99.90
25410;DHT22;13339;50.840;4.346;2023-11-22T04:33:22;7.70;99.90
25410;DHT22;13339;50.840;4.346;2023-11-22T04:35:49;7.50;99.90
25410;DHT22;13339;50.840;4.346;2023-11-22T04:38:14;7.10;99.90
25410;DHT22;13339;50.840;4.346;2023-11-22T04:40:40;7.10;99.90
25410;DHT22;13339;50.840;4.346;2023-11-22T04:43:08;7.00;99.90
25410;DHT22;13339;50.840;4.346;2023-11-22T04:45:33;7.00;99.90
25410;DHT22;13339;50.840;4.346;2023-11-22T04:48:00;7.10;99.90
25410;DHT22;13339;50.840;4.346;2023-11-22T04:50:25;7.40;99.90
25410;DHT22;13339;50.840;4.346;2023-11-22T04:52:51;7.60;99.90
25410;DHT22;13339;50.840;4.346;2023-11-22T04:55:17;7.70;99.90
25410;DHT22;13339;50.840;4.346;2023-11-22T04:57:43;7.60;99.90
25410;DHT22;13339;50.840;4.346;2023-11-22T05:00:09;7.50;99.90
25410;DHT22;13339;50.840;4.346;2023-11-22T05:02:35;7.40;99.90
25410;DHT22;13339;50.840;4.346;2023-11-22T05:05:01;7.40;99.90
25410;DHT22;13339;50.840;4.346;2023-11-22T05:07:26;7.00;99.90
25410;DHT22;13339;50.840;4.346;2023-11-22T05:09:52;6.90;99.90
25410;DHT22;13339;50.840;4.346;2023-11-22T05:12:18;6.70;99.90
25410;DHT22;13339;50.840;4.346;2023-11-22T05:14:43;6.80;99.90
25410;DHT22;13339;50.840;4.346;2023-11-22T05:17:11;6.90;99.90
25410;DHT22;13339;50.840;4.346;2023-11-22T05:19:38;7.20;99.90
25410;DHT22;13339;50.840;4.346;2023-11-22T05:22:03;7.40;99.90
25410;DHT22;13339;50.840;4.346;2023-11-22T05:24:29;7.30;99.90
25410;DHT22;13339;50.840;4.346;2023-11-22T05:26:54;7.20;99.90
25410;DHT22;13339;50.840;4.346;2023-11-22T05:29:20;7.30;99.90
25410;DHT22;13339;50.840;4.346;2023-11-22T05:31:46;7.50;99.90
25410;DHT22;13339;50.840;4.346;2023-11-22T05:34:11;7.70;99.90
25410;DHT22;13339;50.840;4.346;2023-11-22T05:36:37;7.60;99.90
25410;DHT22;13339;50.840;4.346;2023-11-22T05:39:02;7.30;99.90
25410;DHT22;13339;50.840;4.346;2023-11-22T05:41:29;7.10;99.90
25410;DHT22;13339;50.840;4.346;2023-11-22T05:43:55;7.00;99.90
25410;DHT22;13339;50.840;4.346;2023-11-22T05:46:22;7.00;99.90
25410;DHT22;13339;50.840;4.346;2023-11-22T05:48:54;7.00;99.90
25410;DHT22;13339;50.840;4.346;2023-11-22T05:51:20;6.80;99.90
25410;DHT22;13339;50.840;4.346;2023-11-22T05:53:46;6.60;99.90
25410;DHT22;13339;50.840;4.346;2023-11-22T05:56:12;6.60;99.90
25410;DHT22;13339;50.840;4.346;2023-11-22T05:58:38;6.80;99.90
25410;DHT22;13339;50.840;4.346;2023-11-22T06:01:07;7.00;99.90
25410;DHT22;13339;50.840;4.346;2023-11-22T06:03:34;7.20;99.90
25410;DHT22;13339;50.840;4.346;2023-11-22T06:05:59;7.40;99.90
25410;DHT22;13339;50.840;4.346;2023-11-22T06:08:25;7.60;99.90
25410;DHT22;13339;50.840;4.346;2023-11-22T06:10:51;7.70;99.90
25410;DHT22;13339;50.840;4.346;2023-11-22T06:13:18;7.90;99.90
25410;DHT22;13339;50.840;4.346;2023-11-22T06:15:45;8.10;99.90
25410;DHT22;13339;50.840;4.346;2023-11-22T06:18:11;8.00;99.90
25410;DHT22;13339;50.840;4.346;2023-11-22T06:20:39;8.20;99.90
25410;DHT22;13339;50.840;4.346;2023-11-22T06:23:05;8.40;99.90
25410;DHT22;13339;50.840;4.346;2023-11-22T06:25:30;8.40;99.90
25410;DHT22;13339;50.840;4.346;2023-11-22T06:27:56;8.40;99.90
25410;DHT22;13339;50.840;4.346;2023-11-22T06:30:22;8.40;99.90
25410;DHT22;13339;50.840;4.346;2023-11-22T06:32:48;8.30;99.90
25410;DHT22;13339;50.840;4.346;2023-11-22T06:35:14;8.20;99.90
25410;DHT22;13339;50.840;4.346;2023-11-22T06:37:40;7.90;99.90
25410;DHT22;13339;50.840;4.346;2023-11-22T06:40:06;8.00;99.90
25410;DHT22;13339;50.840;4.346;2023-11-22T06:42:33;7.80;99.90
25410;DHT22;13339;50.840;4.346;2023-11-22T06:45:00;7.80;99.90
25410;DHT22;13339;50.840;4.346;2023-11-22T06:47:26;8.00;99.90
25410;DHT22;13339;50.840;4.346;2023-11-22T06:49:55;8.10;99.90
25410;DHT22;13339;50.840;4.346;2023-11-22T06:52:20;8.30;99.90
25410;DHT22;13339;50.840;4.346;2023-11-22T06:54:46;8.30;99.90
25410;DHT22;13339;50.840;4.346;2023-11-22T06:57:12;8.10;99.90
25410;DHT22;13339;50.840;4.346;2023-11-22T06:59:37;7.70;99.90
25410;DHT22;13339;50.840;4.346;2023-11-22T07:02:03;7.70;99.90
25410;DHT22;13339;50.840;4.346;2023-11-22T07:04:29;7.60;99.90
25410;DHT22;13339;50.840;4.346;2023-11-22T07:06:54;7.70;99.90
25410;DHT22;13339;50.840;4.346;2023-11-22T07:09:20;7.70;99.90
25410;DHT22;13339;50.840;4.346;2023-11-22T07:11:45;7.70;99.90
25410;DHT22;13339;50.840;4.346;2023-11-22T07:14:11;7.70;99.90
25410;DHT22;13339;50.840;4.346;2023-11-22T07:16:37;7.80;99.90
25410;DHT22;13339;50.840;4.346;2023-11-22T07:19:03;7.70;99.90
25410;DHT22;13339;50.840;4.346;2023-11-22T07:21:31;7.70;99.90
25410;DHT22;13339;50.840;4.346;2023-11-22T07:23:57;7.80;99.90
25410;DHT22;13339;50.840;4.346;2023-11-22T07:26:24;7.70;99.90
25410;DHT22;13339;50.840;4.346;2023-11-22T07:28:52;7.80;99.90
25410;DHT22;13339;50.840;4.346;2023-11-22T07:31:18;8.00;99.90
25410;DHT22;13339;50.840;4.346;2023-11-22T07:33:45;8.10;99.90
25410;DHT22;13339;50.840;4.346;2023-11-22T07:36:12;8.20;99.90
25410;DHT22;13339;50.840;4.346;2023-11-22T07:38:41;8.10;99.90
25410;DHT22;13339;50.840;4.346;2023-11-22T07:41:08;8.00;99.90
25410;DHT22;13339;50.840;4.346;2023-11-22T07:43:34;8.10;99.90
25410;DHT22;13339;50.840;4.346;2023-11-22T07:46:00;8.10;99.90
25410;DHT22;13339;50.840;4.346;2023-11-22T07:48:26;8.10;99.90
25410;DHT22;13339;50.840;4.346;2023-11-22T07:50:53;8.30;99.90
25410;DHT22;13339;50.840;4.346;2023-11-22T07:53:19;8.50;99.90
25410;DHT22;13339;50.840;4.346;2023-11-22T07:55:45;8.80;99.90
25410;DHT22;13339;50.840;4.346;2023-11-22T07:58:11;9.00;99.90
25410;DHT22;13339;50.840;4.346;2023-11-22T08:00:36;9.20;99.90
25410;DHT22;13339;50.840;4.346;2023-11-22T08:03:02;9.20;99.90
25410;DHT22;13339;50.840;4.346;2023-11-22T08:05:29;9.50;99.90
25410;DHT22;13339;50.840;4.346;2023-11-22T08:08:01;9.50;99.90
25410;DHT22;13339;50.840;4.346;2023-11-22T08:10:27;9.40;99.90
25410;DHT22;13339;50.840;4.346;2023-11-22T08:12:53;9.60;99.90
25410;DHT22;13339;50.840;4.346;2023-11-22T08:15:18;9.80;99.90
25410;DHT22;13339;50.840;4.346;2023-11-22T08:17:45;9.90;99.90
25410;DHT22;13339;50.840;4.346;2023-11-22T08:20:11;10.00;99.90
25410;DHT22;13339;50.840;4.346;2023-11-22T08:22:42;9.90;99.90
25410;DHT22;13339;50.840;4.346;2023-11-22T08:25:08;10.00;99.90
25410;DHT22;13339;50.840;4.346;2023-11-22T08:27:40;10.00;99.90
25410;DHT22;13339;50.840;4.346;2023-11-22T08:30:10;10.10;99.90
25410;DHT22;13339;50.840;4.346;2023-11-22T08:32:47;10.30;99.90
25410;DHT22;13339;50.840;4.346;2023-11-22T08:35:20;10.30;99.90
25410;DHT22;13339;50.840;4.346;2023-11-22T08:37:47;10.20;99.90
25410;DHT22;13339;50.840;4.346;2023-11-22T08:40:13;9.90;99.90
25410;DHT22;13339;50.840;4.346;2023-11-22T08:42:41;9.90;99.90
25410;DHT22;13339;50.840;4.346;2023-11-22T08:45:08;9.90;99.90
25410;DHT22;13339;50.840;4.346;2023-11-22T08:47:34;10.00;99.90
25410;DHT22;13339;50.840;4.346;2023-11-22T08:50:00;9.90;99.90
25410;DHT22;13339;50.840;4.346;2023-11-22T08:52:28;9.90;99.90
25410;DHT22;13339;50.840;4.346;2023-11-22T08:54:56;9.90;99.90
25410;DHT22;13339;50.840;4.346;2023-11-22T08:57:21;9.70;99.90
25410;DHT22;13339;50.840;4.346;2023-11-22T08:59:47;9.90;99.90
25410;DHT22;13339;50.840;4.346;2023-11-22T09:02:13;9.80;99.90
25410;DHT22;13339;50.840;4.346;2023-11-22T09:04:40;9.90;99.90
25410;DHT22;13339;50.840;4.346;2023-11-22T09:07:07;10.00;99.90
25410;DHT22;13339;50.840;4.346;2023-11-22T09:09:32;9.90;99.90
25410;DHT22;13339;50.840;4.346;2023-11-22T09:12:00;10.10;99.90
25410;DHT22;13339;50.840;4.346;2023-11-22T09:14:26;9.90;99.90
25410;DHT22;13339;50.840;4.346;2023-11-22T09:16:52;9.70;99.90
25410;DHT22;13339;50.840;4.346;2023-11-22T09:19:24;9.70;99.90
25410;DHT22;13339;50.840;4.346;2023-11-22T09:21:50;9.80;99.90
25410;DHT22;13339;50.840;4.346;2023-11-22T09:24:16;9.70;99.90
25410;DHT22;13339;50.840;4.346;2023-11-22T09:26:42;9.90;99.90
25410;DHT22;13339;50.840;4.346;2023-11-22T09:29:08;9.80;99.90
25410;DHT22;13339;50.840;4.346;2023-11-22T09:31:35;9.80;99.90
25410;DHT22;13339;50.840;4.346;2023-11-22T09:34:01;9.50;99.90
25410;DHT22;13339;50.840;4.346;2023-11-22T09:36:28;9.40;99.90
25410;DHT22;13339;50.840;4.346;2023-11-22T09:38:57;9.30;99.90
25410;DHT22;13339;50.840;4.346;2023-11-22T09:41:24;9.60;99.90
25410;DHT22;13339;50.840;4.346;2023-11-22T09:43:50;9.80;99.90
25410;DHT22;13339;50.840;4.346;2023-11-22T09:46:16;10.00;99.90
25410;DHT22;13339;50.840;4.346;2023-11-22T09:48:47;10.20;99.90
25410;DHT22;13339;50.840;4.346;2023-11-22T09:51:27;10.30;99.90
25410;DHT22;13339;50.840;4.346;2023-11-22T09:53:58;10.60;99.90
25410;DHT22;13339;50.840;4.346;2023-11-22T09:56:27;10.70;99.90
25410;DHT22;13339;50.840;4.346;2023-11-22T09:58:55;10.80;99.90
25410;DHT22;13339;50.840;4.346;2023-11-22T10:01:23;11.00;99.90
25410;DHT22;13339;50.840;4.346;2023-11-22T10:03:49;11.10;99.90
25410;DHT22;13339;50.840;4.346;2023-11-22T10:06:16;11.20;99.90
25410;DHT22;13339;50.840;4.346;2023-11-22T10:08:43;11.20;99.90
25410;DHT22;13339;50.840;4.346;2023-11-22T10:11:09;11.20;99.90
25410;DHT22;13339;50.840;4.346;2023-11-22T10:13:34;11.20;99.90
25410;DHT22;13339;50.840;4.346;2023-11-22T10:16:11;11.20;99.90
25410;DHT22;13339;50.840;4.346;2023-11-22T10:18:47;11.10;99.90
25410;DHT22;13339;50.840;4.346;2023-11-22T10:21:25;11.10;99.90
25410;DHT22;13339;50.840;4.346;2023-11-22T10:23:56;11.10;99.90
25410;DHT22;13339;50.840;4.346;2023-11-22T10:26:22;11.10;99.90
25410;DHT22;13339;50.840;4.346;2023-11-22T10:28:52;11.00;99.90
25410;DHT22;13339;50.840;4.346;2023-11-22T10:31:21;11.00;99.90
25410;DHT22;13339;50.840;4.346;2023-11-22T10:33:47;10.90;99.90
25410;DHT22;13339;50.840;4.346;2023-11-22T10:36:14;10.70;99.90
25410;DHT22;13339;50.840;4.346;2023-11-22T10:38:41;10.80;99.90
25410;DHT22;13339;50.840;4.346;2023-11-22T10:41:08;10.70;99.90
25410;DHT22;13339;50.840;4.346;2023-11-22T10:43:35;10.90;99.90
25410;DHT22;13339;50.840;4.346;2023-11-22T10:46:02;10.80;99.90
25410;DHT22;13339;50.840;4.346;2023-11-22T10:48:28;10.90;99.90
25410;DHT22;13339;50.840;4.346;2023-11-22T10:50:57;11.10;99.90
25410;DHT22;13339;50.840;4.346;2023-11-22T10:53:35;11.20;99.90
25410;DHT22;13339;50.840;4.346;2023-11-22T10:56:15;11.20;99.90
25410;DHT22;13339;50.840;4.346;2023-11-22T11:01:15;11.00;99.90
25410;DHT22;13339;50.840;4.346;2023-11-22T11:04:03;11.10;99.90
25410;DHT22;13339;50.840;4.346;2023-11-22T11:06:32;11.20;99.90
25410;DHT22;13339;50.840;4.346;2023-11-22T11:09:01;11.30;99.90
25410;DHT22;13339;50.840;4.346;2023-11-22T11:11:32;11.30;99.90
25410;DHT22;13339;50.840;4.346;2023-11-22T11:13:58;11.30;99.90
25410;DHT22;13339;50.840;4.346;2023-11-22T11:16:25;11.40;99.90
25410;DHT22;13339;50.840;4.346;2023-11-22T11:18:52;11.60;99.90
25410;DHT22;13339;50.840;4.346;2023-11-22T11:21:19;11.50;99.90
25410;DHT22;13339;50.840;4.346;2023-11-22T11:23:44;11.50;99.90
25410;DHT22;13339;50.840;4.346;2023-11-22T11:26:19;11.70;99.90
25410;DHT22;13339;50.840;4.346;2023-11-22T11:28:50;11.60;99.90
25410;DHT22;13339;50.840;4.346;2023-11-22T11:31:22;11.60;99.90
25410;DHT22;13339;50.840;4.346;2023-11-22T11:36:30;11.70;99.90
25410;DHT22;13339;50.840;4.346;2023-11-22T11:39:01;11.60;99.90
25410;DHT22;13339;50.840;4.346;2023-11-22T11:41:29;11.60;99.90
25410;DHT22;13339;50.840;4.346;2023-11-22T11:43:56;11.60;99.90
25410;DHT22;13339;50.840;4.346;2023-11-22T11:46:22;11.60;99.90
25410;DHT22;13339;50.840;4.346;2023-11-22T11:48:49;11.70;99.90
25410;DHT22;13339;50.840;4.346;2023-11-22T11:51:16;11.80;99.90
25410;DHT22;13339;50.840;4.346;2023-11-22T11:53:42;11.90;99.90
25410;DHT22;13339;50.840;4.346;2023-11-22T11:56:09;11.90;99.90
25410;DHT22;13339;50.840;4.346;2023-11-22T11:58:35;11.90;99.90
25410;DHT22;13339;50.840;4.346;2023-11-22T12:01:00;11.90;99.90
25410;DHT22;13339;50.840;4.346;2023-11-22T12:03:27;12.10;99.90
25410;DHT22;13339;50.840;4.346;2023-11-22T12:05:53;12.20;99.90
25410;DHT22;13339;50.840;4.346;2023-11-22T12:08:19;12.10;99.90
25410;DHT22;13339;50.840;4.346;2023-11-22T12:10:45;12.20;99.90
25410;DHT22;13339;50.840;4.346;2023-11-22T12:13:18;12.30;99.90
25410;DHT22;13339;50.840;4.346;2023-11-22T12:15:46;12.30;99.90
25410;DHT22;13339;50.840;4.346;2023-11-22T12:18:11;12.30;99.90
25410;DHT22;13339;50.840;4.346;2023-11-22T12:20:38;12.40;99.90
25410;DHT22;13339;50.840;4.346;2023-11-22T12:23:04;12.30;99.90
25410;DHT22;13339;50.840;4.346;2023-11-22T12:25:30;12.30;99.90
25410;DHT22;13339;50.840;4.346;2023-11-22T12:27:56;12.20;99.90
25410;DHT22;13339;50.840;4.346;2023-11-22T12:30:32;12.20;99.90
25410;DHT22;13339;50.840;4.346;2023-11-22T12:33:02;12.00;99.90
25410;DHT22;13339;50.840;4.346;2023-11-22T12:35:29;12.00;99.90
25410;DHT22;13339;50.840;4.346;2023-11-22T12:37:54;12.10;99.90
25410;DHT22;13339;50.840;4.346;2023-11-22T12:40:21;12.20;99.90
25410;DHT22;13339;50.840;4.346;2023-11-22T12:42:50;12.20;99.90
25410;DHT22;13339;50.840;4.346;2023-11-22T12:45:23;12.10;99.90
25410;DHT22;13339;50.840;4.346;2023-11-22T12:47:52;12.10;99.90
25410;DHT22;13339;50.840;4.346;2023-11-22T12:50:38;12.00;99.90
25410;DHT22;13339;50.840;4.346;2023-11-22T12:53:14;11.90;99.90
25410;DHT22;13339;50.840;4.346;2023-11-22T12:55:44;12.00;99.90
25410;DHT22;13339;50.840;4.346;2023-11-22T12:58:10;11.90;99.90
25410;DHT22;13339;50.840;4.346;2023-11-22T13:00:38;11.80;99.90
25410;DHT22;13339;50.840;4.346;2023-11-22T13:03:08;11.80;99.90
25410;DHT22;13339;50.840;4.346;2023-11-22T13:05:36;11.80;99.90
25410;DHT22;13339;50.840;4.346;2023-11-22T13:08:02;11.70;99.90
25410;DHT22;13339;50.840;4.346;2023-11-22T13:10:29;11.80;99.90
25410;DHT22;13339;50.840;4.346;2023-11-22T13:12:55;11.70;99.90
25410;DHT22;13339;50.840;4.346;2023-11-22T13:15:21;11.60;99.90
25410;DHT22;13339;50.840;4.346;2023-11-22T13:17:52;11.50;99.90
25410;DHT22;13339;50.840;4.346;2023-11-22T13:20:22;11.50;99.90
25410;DHT22;13339;50.840;4.346;2023-11-22T13:22:48;11.40;99.90
25410;DHT22;13339;50.840;4.346;2023-11-22T13:25:14;11.40;99.90
25410;DHT22;13339;50.840;4.346;2023-11-22T13:27:40;11.40;99.90
25410;DHT22;13339;50.840;4.346;2023-11-22T13:30:06;11.40;99.90
25410;DHT22;13339;50.840;4.346;2023-11-22T13:32:32;11.30;99.90
25410;DHT22;13339;50.840;4.346;2023-11-22T13:34:58;11.30;99.90
25410;DHT22;13339;50.840;4.346;2023-11-22T13:37:24;11.20;99.90
25410;DHT22;13339;50.840;4.346;2023-11-22T13:39:50;11.30;99.90
25410;DHT22;13339;50.840;4.346;2023-11-22T13:42:16;11.40;99.90
25410;DHT22;13339;50.840;4.346;2023-11-22T13:44:42;11.40;99.90
25410;DHT22;13339;50.840;4.346;2023-11-22T13:47:09;11.50;99.90
25410;DHT22;13339;50.840;4.346;2023-11-22T13:49:35;11.50;99.90
25410;DHT22;13339;50.840;4.346;2023-11-22T13:52:02;11.50;99.90
25410;DHT22;13339;50.840;4.346;2023-11-22T13:54:28;11.60;99.90
25410;DHT22;13339;50.840;4.346;2023-11-22T13:56:54;11.70;99.90
25410;DHT22;13339;50.840;4.346;2023-11-22T13:59:19;11.60;99.90
25410;DHT22;13339;50.840;4.346;2023-11-22T14:01:45;11.60;99.90
25410;DHT22;13339;50.840;4.346;2023-11-22T14:04:11;11.60;99.90
25410;DHT22;13339;50.840;4.346;2023-11-22T14:06:37;11.50;99.90
25410;DHT22;13339;50.840;4.346;2023-11-22T14:09:03;11.50;99.90
25410;DHT22;13339;50.840;4.346;2023-11-22T14:11:28;11.60;99.90
25410;DHT22;13339;50.840;4.346;2023-11-22T14:13:55;11.60;99.90
25410;DHT22;13339;50.840;4.346;2023-11-22T14:16:20;11.60;99.90
25410;DHT22;13339;50.840;4.346;2023-11-22T14:18:46;11.50;99.90
25410;DHT22;13339;50.840;4.346;2023-11-22T14:21:12;11.40;99.90
25410;DHT22;13339;50.840;4.346;2023-11-22T14:23:38;11.40;99.90
25410;DHT22;13339;50.840;4.346;2023-11-22T14:26:03;11.50;99.90
25410;DHT22;13339;50.840;4.346;2023-11-22T14:28:29;11.60;99.90
25410;DHT22;13339;50.840;4.346;2023-11-22T14:30:55;11.50;99.90
25410;DHT22;13339;50.840;4.346;2023-11-22T14:33:21;11.60;99.90
25410;DHT22;13339;50.840;4.346;2023-11-22T14:35:47;11.60;99.90
25410;DHT22;13339;50.840;4.346;2023-11-22T14:38:13;11.60;99.90
25410;DHT22;13339;50.840;4.346;2023-11-22T14:40:39;11.60;99.90
25410;DHT22;13339;50.840;4.346;2023-11-22T14:43:05;11.60;99.90
25410;DHT22;13339;50.840;4.346;2023-11-22T14:45:31;11.60;99.90
25410;DHT22;13339;50.840;4.346;2023-11-22T14:47:58;11.60;99.90
25410;DHT22;13339;50.840;4.346;2023-11-22T14:50:24;11.60;99.90
25410;DHT22;13339;50.840;4.346;2023-11-22T14:52:53;11.50;99.90
25410;DHT22;13339;50.840;4.346;2023-11-22T14:55:19;11.50;99.90
25410;DHT22;13339;50.840;4.346;2023-11-22T14:57:46;11.50;99.90
25410;DHT22;13339;50.840;4.346;2023-11-22T15:00:13;11.40;99.90
25410;DHT22;13339;50.840;4.346;2023-11-22T15:02:42;11.40;99.90
25410;DHT22;13339;50.840;4.346;2023-11-22T15:05:09;11.40;99.90
25410;DHT22;13339;50.840;4.346;2023-11-22T15:07:38;11.30;99.90
25410;DHT22;13339;50.840;4.346;2023-11-22T15:10:09;11.20;99.90
25410;DHT22;13339;50.840;4.346;2023-11-22T15:12:35;11.10;99.90
25410;DHT22;13339;50.840;4.346;2023-11-22T15:15:01;11.10;99.90
25410;DHT22;13339;50.840;4.346;2023-11-22T15:17:27;11.10;99.90
25410;DHT22;13339;50.840;4.346;2023-11-22T15:19:53;11.00;99.90
25410;DHT22;13339;50.840;4.346;2023-11-22T15:22:19;11.00;99.90
25410;DHT22;13339;50.840;4.346;2023-11-22T15:24:44;11.00;99.90
25410;DHT22;13339;50.840;4.346;2023-11-22T15:27:10;11.00;99.90
25410;DHT22;13339;50.840;4.346;2023-11-22T15:29:35;11.10;99.90
25410;DHT22;13339;50.840;4.346;2023-11-22T15:32:01;11.10;99.90
25410;DHT22;13339;50.840;4.346;2023-11-22T15:34:28;11.10;99.90
25410;DHT22;13339;50.840;4.346;2023-11-22T15:36:53;11.10;99.90
25410;DHT22;13339;50.840;4.346;2023-11-22T15:39:19;11.10;99.90
25410;DHT22;13339;50.840;4.346;2023-11-22T15:41:47;11.20;99.90